Decoded Metar for KFLP (FLIPPIN (AWOS) in AR, USA) (IATA:FLP) | Meteo·Mobile Aviation Weather
aviador You're here:

KFLP Decoded Metar

FLIPPIN (AWOS) in AR, USA
Report Time2018-09-22 10:56:00
UTC Time2018-09-22 11:30:27
Flight Rules mvfr MVFR
Wind040° at 08 kt
W.Decomp.*RWY 04: 8.0 kt HW 0.4 kt LCW
W.Rank040° ranks 28
Current wind is above 040° avg. (4.6)
Visibility9999 m
Phenomena:Light Rain
Clouds:Scattered 006 Hf
Broken 010 Hf
Overcast 042 Hf
Expected CloudBase > 400 ft AGL from Temp-Dew spread
Ceiling1,000 ft
Temp15°C (ISA +1)
Dew Point14°C (94% RH)
AAT13.4°C
QNH1022 hPa
Density Alt801 ft
Elevation719 ft
Report Wrong Elevation
Raw Report
KFLP 221056Z AUTO 04008KT 8SM -RA SCT006 BKN010 OVC042 15/14 A3018
RMK AO2 CIG 008V014 SLP213 P0009 T01500144=

Extra information for KFLP:More info

Metar Taf Metar & Taf Last 4 Metars F.Rules Stats Wind Profile Meteogram Temp Stats Airport Information Weather charts Add Link Nearby VenuesMetar ALERT Operation Metar Decoded Social comments

AIRNAV info for KFLP